KAXN/AXN METAR and TAF weather

Enter ICAO airport designator
Station Type Date Time Source
KAXN METAR 2020/11/28 19:53 UTC NOAA

KAXN 281953Z AUTO 23010KT 10SM CLR 08/M01 A2984 RMK AO2 SLP118 T00781011


Station Type Date Time Source
KAXN Decoded METAR 2020/11/28 19:53 UTC NOAA

CHANDLER FIELD, MN, United States (KAXN) 45-52N 095-24W 433M
Nov 28, 2020 - 02:53 PM EST / 2020.11.28 1953 UTC
Wind: from the SW (230 degrees) at 12 MPH (10 KT):0
Visibility: 10 mile(s):0
Sky conditions: clear
Temperature: 46.0 F (7.8 C)
Dew Point: 30.0 F (-1.1 C)
Relative Humidity: 53%
Pressure (altimeter): 29.84 in. Hg (1010 hPa)
ob: KAXN 281953Z AUTO 23010KT 10SM CLR 08/M01 A2984 RMK AO2 SLP118 T00781011
cycle: 20

Station Type Date Time Source
KAXN TAF 2020/11/28 18:22 UTC NOAA

TAF KAXN 281720Z 2818/2918 24010KT P6SM SKC
FM290500 30013G20KT P6SM BKN150
FM290800 32022G34KT P6SM BKN020 OVC150
FM291600 32020G30KT P6SM BKN035

Example: see airport list